Time;durP1;ratioP1;P1;durP2;ratioP2;P2;SDS_P1;SDS_P2;PMS_P1;PMS_P2;Temp;Humidity;BMP_temperature;BMP_pressure;BME280_temperature;BME280_humidity;BME280_pressure;Samples;Min_cycle;Max_cycle;Signal;HPM_P1;HPM_P2
2023/08/06 00:02:17;;;;;;;6.50;1.10;;;;;;;-128.00;-1.00;-1.00;18937;295;7505084;-37
2023/08/06 00:04:43;;;;;;;2.50;0.90;;;;;;;-128.00;-1.00;-1.00;18865;294;7504585;-37
2023/08/06 00:07:09;;;;;;;3.00;1.10;;;;;;;-128.00;-1.00;-1.00;18896;294;7504454;-34
2023/08/06 00:09:35;;;;;;;1.30;1.20;;;;;;;-128.00;-1.00;-1.00;18900;294;7505028;-33
2023/08/06 00:12:02;;;;;;;6.00;1.00;;;;;;;-128.00;-1.00;-1.00;18883;294;7504832;-33
2023/08/06 00:14:28;;;;;;;8.60;1.20;;;;;;;-128.00;-1.00;-1.00;18874;294;7505147;-37
2023/08/06 00:16:54;;;;;;;3.30;1.20;;;;;;;-128.00;-1.00;-1.00;18913;294;7504398;-34
2023/08/06 00:19:21;;;;;;;8.50;1.40;;;;;;;-128.00;-1.00;-1.00;18905;294;7504470;-34
2023/08/06 00:21:47;;;;;;;2.10;1.50;;;;;;;-128.00;-1.00;-1.00;18859;294;7505729;-36
2023/08/06 00:24:13;;;;;;;3.80;1.40;;;;;;;-128.00;-1.00;-1.00;18898;302;7504977;-33
2023/08/06 00:26:40;;;;;;;2.40;1.80;;;;;;;-128.00;-1.00;-1.00;18874;294;7504400;-37
2023/08/06 00:29:06;;;;;;;1.50;1.40;;;;;;;-128.00;-1.00;-1.00;18868;294;7505001;-34
2023/08/06 00:31:32;;;;;;;2.50;1.10;;;;;;;-128.00;-1.00;-1.00;18891;296;7504606;-33
2023/08/06 00:33:58;;;;;;;2.30;1.30;;;;;;;-128.00;-1.00;-1.00;18887;294;7504173;-32
2023/08/06 00:36:24;;;;;;;5.30;1.30;;;;;;;-128.00;-1.00;-1.00;18906;294;7504943;-36
2023/08/06 01:18:41;;;;;;;3.30;2.30;;;;;;;-99.43;19.20;19613.09;19577;302;8044339;-33
2023/08/06 01:21:07;;;;;;;2.20;2.00;;;;;;;-128.00;-1.00;-1.00;18086;337;7505808;-33
2023/08/06 01:23:33;;;;;;;2.60;1.90;;;;;;;-128.00;-1.00;-1.00;18470;337;7505809;-35
2023/08/06 01:26:15;;;;;;;2.50;2.30;;;;;;;-128.00;-1.00;-1.00;18496;294;7506352;-36
2023/08/06 01:28:52;;;;;;;2.70;1.90;;;;;;;-128.00;-1.00;-1.00;18469;294;7505387;-36
2023/08/06 01:31:22;;;;;;;2.90;2.00;;;;;;;-128.00;-1.00;-1.00;18485;294;7504320;-33
2023/08/06 01:33:48;;;;;;;3.40;2.00;;;;;;;-128.00;-1.00;-1.00;18520;310;7504223;-33
2023/08/06 01:36:16;;;;;;;2.40;1.90;;;;;;;-128.00;-1.00;-1.00;18463;294;7504683;-36
2023/08/06 01:38:42;;;;;;;3.50;2.60;;;;;;;-128.00;-1.00;-1.00;18472;294;7504587;-36
2023/08/06 01:41:07;;;;;;;2.30;2.10;;;;;;;-128.00;-1.00;-1.00;18472;294;7504773;-37
2023/08/06 01:43:33;;;;;;;7.80;2.70;;;;;;;-128.00;-1.00;-1.00;18463;335;7504664;-36
2023/08/06 01:45:59;;;;;;;6.70;2.80;;;;;;;-128.00;-1.00;-1.00;18471;329;7505287;-37
2023/08/06 01:48:25;;;;;;;3.60;3.20;;;;;;;-128.00;-1.00;-1.00;18501;294;7505146;-34
2023/08/06 01:50:50;;;;;;;16.20;3.60;;;;;;;-128.00;-1.00;-1.00;18494;347;7504596;-34
2023/08/06 01:53:17;;;;;;;5.90;3.00;;;;;;;-128.00;-1.00;-1.00;18874;339;7504817;-36
2023/08/06 01:55:48;;;;;;;4.30;3.90;;;;;;;-128.00;-1.00;-1.00;18854;295;7504884;-35
2023/08/06 01:58:14;;;;;;;3.10;2.40;;;;;;;-128.00;-1.00;-1.00;18475;294;7504639;-36
2023/08/06 02:00:40;;;;;;;3.30;2.50;;;;;;;-128.00;-1.00;-1.00;18513;294;7504580;-36
2023/08/06 02:03:06;;;;;;;3.00;2.70;;;;;;;-128.00;-1.00;-1.00;18468;294;7504715;-33
2023/08/06 02:05:31;;;;;;;21.30;3.80;;;;;;;-128.00;-1.00;-1.00;18490;286;7504272;-33
2023/08/06 02:07:57;;;;;;;5.70;3.80;;;;;;;-128.00;-1.00;-1.00;18480;335;7504899;-36
2023/08/06 02:10:23;;;;;;;5.20;3.20;;;;;;;-128.00;-1.00;-1.00;18467;295;7504458;-33
2023/08/06 02:12:48;;;;;;;3.50;3.20;;;;;;;-128.00;-1.00;-1.00;18476;294;7505034;-33
2023/08/06 02:15:14;;;;;;;27.80;4.20;;;;;;;-128.00;-1.00;-1.00;18497;294;7506330;-33
2023/08/06 02:17:40;;;;;;;2.70;2.50;;;;;;;-128.00;-1.00;-1.00;18465;294;7504356;-34
2023/08/06 02:20:07;;;;;;;9.70;3.10;;;;;;;-128.00;-1.00;-1.00;18487;294;7504913;-33
2023/08/06 02:22:33;;;;;;;7.30;4.20;;;;;;;-128.00;-1.00;-1.00;18473;295;7505853;-36
2023/08/06 02:24:59;;;;;;;9.50;2.10;;;;;;;-128.00;-1.00;-1.00;18503;296;7504643;-36
2023/08/06 02:27:25;;;;;;;5.00;4.40;;;;;;;-128.00;-1.00;-1.00;18478;296;7506254;-36
2023/08/06 02:29:51;;;;;;;23.20;3.80;;;;;;;-128.00;-1.00;-1.00;18499;295;7506003;-36
2023/08/06 02:32:16;;;;;;;24.10;3.60;;;;;;;-128.00;-1.00;-1.00;18475;294;7506457;-33
2023/08/06 02:34:42;;;;;;;23.80;3.40;;;;;;;-128.00;-1.00;-1.00;18486;307;7506734;-33
2023/08/06 02:37:08;;;;;;;11.70;4.00;;;;;;;-128.00;-1.00;-1.00;18470;294;7505611;-33
2023/08/06 02:39:39;;;;;;;7.20;3.60;;;;;;;-128.00;-1.00;-1.00;18483;295;7504349;-38
2023/08/06 02:42:07;;;;;;;4.40;3.60;;;;;;;-128.00;-1.00;-1.00;18502;288;7504740;-37
2023/08/06 02:44:33;;;;;;;8.30;2.70;;;;;;;-128.00;-1.00;-1.00;18474;294;7504456;-34
2023/08/06 02:47:00;;;;;;;3.40;2.50;;;;;;;-128.00;-1.00;-1.00;18481;283;7504680;-37
2023/08/06 02:49:25;;;;;;;7.80;4.40;;;;;;;-128.00;-1.00;-1.00;18491;294;7504572;-36
2023/08/06 02:51:51;;;;;;;4.30;3.90;;;;;;;-128.00;-1.00;-1.00;18483;294;7506330;-35
2023/08/06 02:54:18;;;;;;;8.00;3.60;;;;;;;-128.00;-1.00;-1.00;18479;283;7504795;-35
2023/08/06 02:56:45;;;;;;;5.70;5.10;;;;;;;-128.00;-1.00;-1.00;18506;294;7504907;-38
2023/08/06 02:59:11;;;;;;;11.50;6.50;;;;;;;-128.00;-1.00;-1.00;18510;294;7504676;-37
2023/08/06 03:01:37;;;;;;;5.20;4.60;;;;;;;-128.00;-1.00;-1.00;18493;294;7504357;-38
2023/08/06 03:04:03;;;;;;;8.90;3.70;;;;;;;-128.00;-1.00;-1.00;18468;302;7504270;-38
2023/08/06 03:06:29;;;;;;;6.50;5.90;;;;;;;-128.00;-1.00;-1.00;18474;307;7504561;-35
2023/08/06 03:08:54;;;;;;;14.00;5.70;;;;;;;-128.00;-1.00;-1.00;18521;294;7504550;-35
2023/08/06 03:11:20;;;;;;;4.90;4.50;;;;;;;-128.00;-1.00;-1.00;18478;295;7505032;-35
2023/08/06 03:13:47;;;;;;;12.70;6.50;;;;;;;-128.00;-1.00;-1.00;18871;342;7504506;-35
2023/08/06 03:16:13;;;;;;;18.80;5.20;;;;;;;-128.00;-1.00;-1.00;18461;303;7506229;-34
2023/08/06 03:18:39;;;;;;;7.00;6.20;;;;;;;-128.00;-1.00;-1.00;18493;347;7504470;-38
2023/08/06 03:21:05;;;;;;;8.80;6.30;;;;;;;-128.00;-1.00;-1.00;18490;294;7504629;-33
2023/08/06 03:23:31;;;;;;;11.30;4.00;;;;;;;-128.00;-1.00;-1.00;18492;294;7504751;-34
2023/08/06 03:26:00;;;;;;;49.50;7.50;;;;;;;-128.00;-1.00;-1.00;18513;298;7505072;-33
2023/08/06 03:28:26;;;;;;;32.90;5.70;;;;;;;-128.00;-1.00;-1.00;18480;294;7504881;-36
2023/08/06 03:31:04;;;;;;;23.40;3.90;;;;;;;-128.00;-1.00;-1.00;18506;294;7505506;-37
2023/08/06 03:33:29;;;;;;;11.40;6.00;;;;;;;-128.00;-1.00;-1.00;18470;294;7505153;-33
2023/08/06 03:35:56;;;;;;;10.00;5.20;;;;;;;-128.00;-1.00;-1.00;18509;294;7505830;-36
2023/08/06 03:38:22;;;;;;;4.20;3.90;;;;;;;-128.00;-1.00;-1.00;18484;294;7504288;-33
2023/08/06 03:40:48;;;;;;;5.80;5.10;;;;;;;-128.00;-1.00;-1.00;18475;294;7506216;-33
2023/08/06 03:43:14;;;;;;;20.30;5.00;;;;;;;-128.00;-1.00;-1.00;18481;296;7504572;-36
2023/08/06 03:45:40;;;;;;;7.80;6.70;;;;;;;-128.00;-1.00;-1.00;18508;294;7506497;-33
2023/08/06 03:48:07;;;;;;;5.30;4.80;;;;;;;-128.00;-1.00;-1.00;18479;319;7504700;-34
2023/08/06 03:50:33;;;;;;;5.50;5.00;;;;;;;-128.00;-1.00;-1.00;18492;294;7505075;-33
2023/08/06 03:52:59;;;;;;;29.30;6.40;;;;;;;-128.00;-1.00;-1.00;18465;294;7506033;-33
2023/08/06 03:55:24;;;;;;;45.70;6.90;;;;;;;-128.00;-1.00;-1.00;18508;294;7505116;-33
2023/08/06 03:57:50;;;;;;;5.40;4.80;;;;;;;-128.00;-1.00;-1.00;18490;335;7505008;-33
2023/08/06 04:00:16;;;;;;;5.60;4.40;;;;;;;-128.00;-1.00;-1.00;18471;294;7505995;-37
2023/08/06 04:02:42;;;;;;;5.80;4.90;;;;;;;-128.00;-1.00;-1.00;18504;287;7506285;-34
2023/08/06 04:05:08;;;;;;;7.20;5.60;;;;;;;-128.00;-1.00;-1.00;18471;294;7504700;-37
2023/08/06 04:07:34;;;;;;;3.70;3.40;;;;;;;-128.00;-1.00;-1.00;18503;294;7504726;-37
2023/08/06 04:10:01;;;;;;;5.20;3.80;;;;;;;-128.00;-1.00;-1.00;18461;294;7505091;-34
2023/08/06 04:12:27;;;;;;;6.10;4.60;;;;;;;-128.00;-1.00;-1.00;18512;335;7504646;-37
2023/08/06 04:14:53;;;;;;;5.60;4.80;;;;;;;-128.00;-1.00;-1.00;18510;294;7506228;-34
2023/08/06 04:17:23;;;;;;;5.50;5.00;;;;;;;-128.00;-1.00;-1.00;18464;339;7504815;-33
2023/08/06 04:19:52;;;;;;;4.40;4.00;;;;;;;-128.00;-1.00;-1.00;18459;335;7505276;-35
2023/08/06 04:22:18;;;;;;;5.50;4.60;;;;;;;-128.00;-1.00;-1.00;18491;335;7506202;-37
2023/08/06 04:24:44;;;;;;;7.20;5.60;;;;;;;-128.00;-1.00;-1.00;18468;294;7506230;-34
2023/08/06 04:27:11;;;;;;;6.00;4.50;;;;;;;-128.00;-1.00;-1.00;18507;294;7505074;-37
2023/08/06 04:29:37;;;;;;;5.00;4.10;;;;;;;-128.00;-1.00;-1.00;18466;306;7505036;-37
2023/08/06 04:32:05;;;;;;;3.90;3.50;;;;;;;-128.00;-1.00;-1.00;18495;294;7505227;-37
2023/08/06 04:34:32;;;;;;;5.10;4.60;;;;;;;-128.00;-1.00;-1.00;18485;294;7504814;-37
2023/08/06 04:36:58;;;;;;;6.00;5.50;;;;;;;-128.00;-1.00;-1.00;18473;346;7505835;-37
2023/08/06 04:39:25;;;;;;;5.20;4.00;;;;;;;-128.00;-1.00;-1.00;18484;319;7504307;-37
2023/08/06 04:41:51;;;;;;;5.60;4.60;;;;;;;-128.00;-1.00;-1.00;18501;294;7506620;-34
2023/08/06 04:44:17;;;;;;;4.40;3.90;;;;;;;-128.00;-1.00;-1.00;18480;294;7505981;-37
2023/08/06 04:46:43;;;;;;;6.30;5.70;;;;;;;-128.00;-1.00;-1.00;18466;294;7506347;-34
2023/08/06 04:49:08;;;;;;;4.00;3.40;;;;;;;-128.00;-1.00;-1.00;18476;347;7504347;-34
2023/08/06 04:51:35;;;;;;;3.90;3.60;;;;;;;-128.00;-1.00;-1.00;18480;294;7504633;-37
2023/08/06 04:54:01;;;;;;;4.00;3.70;;;;;;;-128.00;-1.00;-1.00;18490;294;7504537;-34
2023/08/06 04:56:28;;;;;;;5.70;5.20;;;;;;;-128.00;-1.00;-1.00;18455;294;7504555;-36
2023/08/06 04:58:53;;;;;;;3.80;3.50;;;;;;;-128.00;-1.00;-1.00;18476;295;7505057;-35
2023/08/06 05:01:19;;;;;;;2.50;2.20;;;;;;;-128.00;-1.00;-1.00;18515;294;7506883;-37
2023/08/06 05:03:47;;;;;;;3.00;2.60;;;;;;;-128.00;-1.00;-1.00;18481;335;7505000;-34
2023/08/06 05:06:12;;;;;;;3.00;2.70;;;;;;;-128.00;-1.00;-1.00;18501;339;7504119;-34
2023/08/06 05:08:39;;;;;;;2.70;1.90;;;;;;;-128.00;-1.00;-1.00;18466;307;7504509;-38
2023/08/06 05:11:05;;;;;;;2.60;2.40;;;;;;;-128.00;-1.00;-1.00;18473;294;7507060;-38
2023/08/06 05:13:31;;;;;;;2.00;1.80;;;;;;;-128.00;-1.00;-1.00;18503;294;7505961;-37
2023/08/06 05:15:57;;;;;;;3.40;3.10;;;;;;;-128.00;-1.00;-1.00;18876;294;7504739;-39
2023/08/06 05:18:23;;;;;;;3.00;2.60;;;;;;;-128.00;-1.00;-1.00;18876;294;7504918;-33
2023/08/06 05:20:49;;;;;;;2.40;2.10;;;;;;;-128.00;-1.00;-1.00;18878;291;7505447;-36
2023/08/06 05:23:16;;;;;;;13.50;3.30;;;;;;;-128.00;-1.00;-1.00;18892;294;7504807;-33
2023/08/06 05:25:42;;;;;;;1.60;1.50;;;;;;;-128.00;-1.00;-1.00;18446;287;7504768;-33
2023/08/06 05:28:08;;;;;;;3.20;2.60;;;;;;;-128.00;-1.00;-1.00;18504;294;7504985;-33
2023/08/06 05:30:33;;;;;;;1.70;1.60;;;;;;;-128.00;-1.00;-1.00;18493;294;7504559;-33
2023/08/06 05:32:59;;;;;;;2.20;1.70;;;;;;;-128.00;-1.00;-1.00;18462;294;7504836;-36
2023/08/06 05:35:25;;;;;;;1.70;1.60;;;;;;;-128.00;-1.00;-1.00;18478;319;7505111;-33
2023/08/06 05:37:50;;;;;;;1.90;1.80;;;;;;;-128.00;-1.00;-1.00;18482;335;7504580;-36
2023/08/06 05:40:16;;;;;;;1.70;1.50;;;;;;;-128.00;-1.00;-1.00;18456;319;7505706;-33
2023/08/06 05:42:42;;;;;;;1.00;0.90;;;;;;;-128.00;-1.00;-1.00;18500;294;7506020;-36
2023/08/06 05:45:08;;;;;;;1.20;0.90;;;;;;;-128.00;-1.00;-1.00;18467;287;7505071;-36
2023/08/06 05:47:34;;;;;;;1.10;1.00;;;;;;;-128.00;-1.00;-1.00;18474;294;7506043;-34
2023/08/06 05:50:00;;;;;;;1.20;1.00;;;;;;;-128.00;-1.00;-1.00;18905;283;7504216;-37
2023/08/06 05:52:26;;;;;;;1.30;1.10;;;;;;;-128.00;-1.00;-1.00;18898;296;7504736;-34
2023/08/06 05:54:54;;;;;;;0.90;0.80;;;;;;;-128.00;-1.00;-1.00;18892;294;7504377;-38
2023/08/06 05:57:20;;;;;;;1.10;0.40;;;;;;;-128.00;-1.00;-1.00;18486;288;7505235;-38
2023/08/06 05:59:46;;;;;;;1.90;0.50;;;;;;;-128.00;-1.00;-1.00;18480;294;7504592;-35
2023/08/06 06:02:12;;;;;;;3.50;0.40;;;;;;;-128.00;-1.00;-1.00;18467;294;7505997;-38
2023/08/06 06:04:38;;;;;;;0.50;0.40;;;;;;;-128.00;-1.00;-1.00;18459;294;7504140;-35
2023/08/06 06:07:04;;;;;;;0.40;0.20;;;;;;;-128.00;-1.00;-1.00;18502;294;7505192;-35
2023/08/06 06:09:30;;;;;;;0.50;0.40;;;;;;;-128.00;-1.00;-1.00;18465;294;7506082;-38
2023/08/06 06:11:56;;;;;;;0.30;0.20;;;;;;;-128.00;-1.00;-1.00;18463;295;7505485;-38
2023/08/06 06:14:21;;;;;;;0.10;0.10;;;;;;;-128.00;-1.00;-1.00;18476;294;7504365;-37
2023/08/06 06:16:47;;;;;;;0.30;0.10;;;;;;;-128.00;-1.00;-1.00;18485;295;7506420;-34
2023/08/06 06:19:13;;;;;;;0.10;0.10;;;;;;;-128.00;-1.00;-1.00;18473;294;7506230;-34
2023/08/06 06:21:39;;;;;;;0.30;0.20;;;;;;;-128.00;-1.00;-1.00;18486;296;7504869;-37
2023/08/06 06:24:05;;;;;;;0.00;0.00;;;;;;;-128.00;-1.00;-1.00;18487;338;7504494;-34
2023/08/06 06:26:31;;;;;;;0.80;0.10;;;;;;;-128.00;-1.00;-1.00;18504;294;7505691;-35
2023/08/06 06:28:58;;;;;;;0.10;0.10;;;;;;;-128.00;-1.00;-1.00;18480;346;7504187;-34
2023/08/06 06:31:24;;;;;;;0.10;0.00;;;;;;;-128.00;-1.00;-1.00;18473;340;7504580;-35
2023/08/06 06:33:49;;;;;;;0.00;0.00;;;;;;;-128.00;-1.00;-1.00;18468;294;7506486;-37
2023/08/06 06:36:15;;;;;;;0.80;0.10;;;;;;;-128.00;-1.00;-1.00;18466;294;7506567;-34
2023/08/06 06:38:41;;;;;;;0.10;0.10;;;;;;;-128.00;-1.00;-1.00;18873;295;7505302;-34
2023/08/06 06:41:08;;;;;;;0.50;0.00;;;;;;;-128.00;-1.00;-1.00;18861;319;7504305;-34
2023/08/06 06:43:34;;;;;;;0.10;0.10;;;;;;;-128.00;-1.00;-1.00;18900;339;7504473;-39
2023/08/06 06:46:00;;;;;;;1.60;0.30;;;;;;;-128.00;-1.00;-1.00;18897;339;7504155;-35
2023/08/06 06:48:27;;;;;;;0.00;0.00;;;;;;;-128.00;-1.00;-1.00;18494;294;7504947;-35
2023/08/06 06:50:53;;;;;;;0.00;0.00;;;;;;;-128.00;-1.00;-1.00;18487;295;7504571;-35
2023/08/06 06:53:19;;;;;;;0.10;0.00;;;;;;;-128.00;-1.00;-1.00;18465;294;7504399;-36
2023/08/06 06:55:45;;;;;;;1.30;0.20;;;;;;;-128.00;-1.00;-1.00;18468;346;7505020;-34
2023/08/06 06:58:11;;;;;;;0.00;0.00;;;;;;;-128.00;-1.00;-1.00;18481;347;7504607;-34
2023/08/06 07:00:37;;;;;;;0.30;0.10;;;;;;;-128.00;-1.00;-1.00;18504;347;7505230;-35
2023/08/06 07:03:03;;;;;;;0.00;0.00;;;;;;;-128.00;-1.00;-1.00;18487;294;7506206;-35
2023/08/06 07:05:29;;;;;;;0.00;0.00;;;;;;;-128.00;-1.00;-1.00;18466;339;7506359;-35
2023/08/06 07:07:55;;;;;;;1.40;0.00;;;;;;;-128.00;-1.00;-1.00;18442;294;7504806;-35
2023/08/06 07:10:22;;;;;;;0.20;0.00;;;;;;;-128.00;-1.00;-1.00;18456;294;7505846;-37
2023/08/06 07:12:48;;;;;;;1.60;0.10;;;;;;;-128.00;-1.00;-1.00;18504;295;7504142;-36
2023/08/06 07:15:14;;;;;;;0.00;0.00;;;;;;;-128.00;-1.00;-1.00;18475;294;7504496;-37
2023/08/06 07:17:40;;;;;;;0.10;0.10;;;;;;;-128.00;-1.00;-1.00;18475;294;7504419;-37
2023/08/06 07:20:07;;;;;;;0.00;0.00;;;;;;;-128.00;-1.00;-1.00;18472;294;7505971;-37
2023/08/06 07:22:33;;;;;;;0.00;0.00;;;;;;;-128.00;-1.00;-1.00;18477;283;7505473;-37
2023/08/06 07:24:58;;;;;;;0.00;0.00;;;;;;;-128.00;-1.00;-1.00;18487;294;7505101;-39
2023/08/06 07:27:25;;;;;;;0.00;0.00;;;;;;;-128.00;-1.00;-1.00;18497;295;7504697;-37
2023/08/06 07:29:50;;;;;;;0.00;0.00;;;;;;;-128.00;-1.00;-1.00;18484;294;7504378;-37
2023/08/06 07:32:16;;;;;;;0.00;0.00;;;;;;;-128.00;-1.00;-1.00;18466;347;7504685;-35
2023/08/06 07:34:42;;;;;;;0.00;0.00;;;;;;;-128.00;-1.00;-1.00;18890;310;7505318;-37
2023/08/06 07:37:08;;;;;;;0.00;0.00;;;;;;;-128.00;-1.00;-1.00;18880;294;7505058;-35
2023/08/06 07:39:34;;;;;;;1.10;0.60;;;;;;;-128.00;-1.00;-1.00;18885;339;7505385;-35
2023/08/06 07:42:04;;;;;;;0.00;0.00;;;;;;;-128.00;-1.00;-1.00;18906;294;7504502;-36
2023/08/06 07:44:30;;;;;;;0.00;0.00;;;;;;;-128.00;-1.00;-1.00;18468;298;7505606;-36
2023/08/06 07:46:56;;;;;;;0.00;0.00;;;;;;;-128.00;-1.00;-1.00;18898;318;7506925;-38
2023/08/06 07:49:22;;;;;;;0.40;0.00;;;;;;;-128.00;-1.00;-1.00;18886;287;7504151;-37
2023/08/06 07:51:48;;;;;;;2.30;0.00;;;;;;;-128.00;-1.00;-1.00;18884;294;7504305;-35
2023/08/06 07:54:15;;;;;;;0.00;0.00;;;;;;;-128.00;-1.00;-1.00;18889;319;7504607;-37
2023/08/06 07:56:41;;;;;;;0.00;0.00;;;;;;;-128.00;-1.00;-1.00;18871;294;7504526;-38
2023/08/06 07:59:08;;;;;;;0.30;0.00;;;;;;;-128.00;-1.00;-1.00;18875;294;7504873;-37
2023/08/06 08:01:34;;;;;;;0.10;0.00;;;;;;;-128.00;-1.00;-1.00;18887;294;7504371;-38
2023/08/06 08:04:01;;;;;;;0.80;0.10;;;;;;;-128.00;-1.00;-1.00;18865;339;7504932;-38
2023/08/06 08:06:27;;;;;;;0.00;0.00;;;;;;;-128.00;-1.00;-1.00;18455;294;7504650;-36
2023/08/06 08:08:53;;;;;;;1.00;0.20;;;;;;;-128.00;-1.00;-1.00;18466;294;7506024;-36
2023/08/06 08:11:20;;;;;;;0.00;0.00;;;;;;;-128.00;-1.00;-1.00;18458;294;7506072;-38
2023/08/06 08:13:45;;;;;;;0.00;0.00;;;;;;;-128.00;-1.00;-1.00;18488;288;7504723;-38
2023/08/06 08:16:11;;;;;;;1.10;0.00;;;;;;;-128.00;-1.00;-1.00;18484;294;7505567;-38
2023/08/06 08:18:37;;;;;;;0.00;0.00;;;;;;;-128.00;-1.00;-1.00;18464;335;7504298;-38
2023/08/06 08:21:03;;;;;;;0.00;0.00;;;;;;;-128.00;-1.00;-1.00;18501;306;7505981;-38
2023/08/06 08:23:28;;;;;;;18.40;0.10;;;;;;;-128.00;-1.00;-1.00;18511;294;7506003;-38
2023/08/06 08:25:54;;;;;;;0.00;0.00;;;;;;;-128.00;-1.00;-1.00;18476;335;7504869;-37
2023/08/06 08:28:20;;;;;;;0.70;0.10;;;;;;;-128.00;-1.00;-1.00;18474;294;7504560;-36
2023/08/06 08:30:45;;;;;;;0.50;0.00;;;;;;;-128.00;-1.00;-1.00;18481;294;7505279;-36
2023/08/06 08:33:11;;;;;;;1.80;0.10;;;;;;;-128.00;-1.00;-1.00;18485;335;7506050;-36
2023/08/06 08:35:37;;;;;;;0.10;0.10;;;;;;;-128.00;-1.00;-1.00;18454;294;7504907;-38
2023/08/06 08:38:03;;;;;;;0.40;0.00;;;;;;;-128.00;-1.00;-1.00;18490;295;7506381;-38
2023/08/06 08:40:32;;;;;;;0.10;0.00;;;;;;;-128.00;-1.00;-1.00;18481;310;7504484;-35
2023/08/06 08:42:59;;;;;;;0.00;0.00;;;;;;;-128.00;-1.00;-1.00;18483;294;7506602;-38
2023/08/06 08:45:26;;;;;;;0.00;0.00;;;;;;;-128.00;-1.00;-1.00;18470;323;7504694;-38
2023/08/06 08:47:52;;;;;;;0.00;0.00;;;;;;;-128.00;-1.00;-1.00;18462;294;7505990;-37
2023/08/06 08:50:19;;;;;;;0.10;0.10;;;;;;;-128.00;-1.00;-1.00;18487;294;7504394;-36
2023/08/06 08:52:48;;;;;;;0.00;0.00;;;;;;;-128.00;-1.00;-1.00;18478;294;7504242;-37
2023/08/06 08:55:15;;;;;;;3.70;0.20;;;;;;;-128.00;-1.00;-1.00;18478;294;7507146;-36
2023/08/06 08:57:40;;;;;;;0.10;0.00;;;;;;;-128.00;-1.00;-1.00;18510;294;7504949;-38
2023/08/06 09:00:07;;;;;;;0.10;0.00;;;;;;;-128.00;-1.00;-1.00;18488;294;7504309;-36
2023/08/06 09:02:33;;;;;;;0.00;0.00;;;;;;;-128.00;-1.00;-1.00;18459;294;7505082;-38
2023/08/06 09:05:02;;;;;;;0.70;0.20;;;;;;;-128.00;-1.00;-1.00;18474;294;7504691;-36
2023/08/06 09:07:29;;;;;;;0.00;0.00;;;;;;;-128.00;-1.00;-1.00;18489;294;7506008;-38
2023/08/06 09:09:54;;;;;;;0.00;0.00;;;;;;;-128.00;-1.00;-1.00;18459;294;7504982;-38
2023/08/06 09:12:20;;;;;;;0.00;0.00;;;;;;;-128.00;-1.00;-1.00;18479;302;7505140;-36
2023/08/06 09:14:46;;;;;;;0.10;0.10;;;;;;;-128.00;-1.00;-1.00;18461;346;7504943;-35
2023/08/06 09:17:12;;;;;;;0.00;0.00;;;;;;;-128.00;-1.00;-1.00;18478;294;7504866;-38
2023/08/06 09:19:37;;;;;;;0.10;0.10;;;;;;;-128.00;-1.00;-1.00;18483;294;7504764;-36
2023/08/06 09:22:10;;;;;;;0.10;0.10;;;;;;;-128.00;-1.00;-1.00;18181;295;8213019;-37
2023/08/06 09:24:39;;;;;;;0.00;0.00;;;;;;;-128.00;-1.00;-1.00;18498;294;7506624;-36
2023/08/06 09:27:04;;;;;;;0.00;0.00;;;;;;;-128.00;-1.00;-1.00;18461;294;7504765;-37
2023/08/06 09:29:31;;;;;;;0.20;0.10;;;;;;;-128.00;-1.00;-1.00;18496;307;7504435;-36
2023/08/06 09:31:57;;;;;;;0.00;0.00;;;;;;;-128.00;-1.00;-1.00;18474;283;7506262;-37
2023/08/06 09:34:23;;;;;;;0.00;0.00;;;;;;;-128.00;-1.00;-1.00;18483;294;7505115;-36
2023/08/06 09:36:51;;;;;;;0.00;0.00;;;;;;;-128.00;-1.00;-1.00;18475;294;7506939;-38
2023/08/06 09:39:17;;;;;;;0.00;0.00;;;;;;;-128.00;-1.00;-1.00;18484;295;7504466;-39
2023/08/06 09:41:43;;;;;;;0.00;0.00;;;;;;;-128.00;-1.00;-1.00;18513;294;7504365;-38
2023/08/06 09:44:23;;;;;;;0.00;0.00;;;;;;;-128.00;-1.00;-1.00;18499;294;7504183;-37
2023/08/06 09:46:49;;;;;;;0.00;0.00;;;;;;;-128.00;-1.00;-1.00;18452;339;7504420;-37
2023/08/06 09:49:19;;;;;;;0.20;0.10;;;;;;;-128.00;-1.00;-1.00;18472;294;7504282;-37
2023/08/06 09:51:46;;;;;;;0.00;0.00;;;;;;;-128.00;-1.00;-1.00;18458;294;7504950;-36
2023/08/06 09:54:12;;;;;;;0.60;0.10;;;;;;;-128.00;-1.00;-1.00;18526;294;7504373;-38
2023/08/06 09:56:38;;;;;;;0.20;0.10;;;;;;;-128.00;-1.00;-1.00;18490;294;7506116;-38
2023/08/06 09:59:06;;;;;;;0.20;0.10;;;;;;;-128.00;-1.00;-1.00;18494;294;7506230;-38
2023/08/06 10:01:33;;;;;;;0.60;0.00;;;;;;;-128.00;-1.00;-1.00;18502;294;7505209;-38
2023/08/06 10:04:00;;;;;;;0.10;0.10;;;;;;;-128.00;-1.00;-1.00;18479;294;7504994;-37
2023/08/06 10:06:25;;;;;;;0.90;0.10;;;;;;;-128.00;-1.00;-1.00;18503;294;7504551;-38
2023/08/06 10:08:52;;;;;;;0.30;0.10;;;;;;;-128.00;-1.00;-1.00;18879;310;7504630;-38
2023/08/06 10:11:18;;;;;;;0.80;0.10;;;;;;;-128.00;-1.00;-1.00;18917;287;7506924;-35
2023/08/06 10:13:44;;;;;;;0.60;0.10;;;;;;;-128.00;-1.00;-1.00;18861;294;7504290;-35
2023/08/06 10:16:10;;;;;;;1.40;0.20;;;;;;;-128.00;-1.00;-1.00;18871;294;7504610;-35
2023/08/06 10:18:37;;;;;;;1.80;0.20;;;;;;;-128.00;-1.00;-1.00;18876;295;7504895;-36
2023/08/06 10:21:03;;;;;;;0.10;0.10;;;;;;;-128.00;-1.00;-1.00;18480;335;7505990;-36
2023/08/06 10:23:34;;;;;;;0.70;0.10;;;;;;;-128.00;-1.00;-1.00;18875;295;7504560;-37
2023/08/06 10:25:59;;;;;;;0.20;0.00;;;;;;;-128.00;-1.00;-1.00;18508;294;7505148;-37
2023/08/06 10:28:35;;;;;;;0.30;0.10;;;;;;;-128.00;-1.00;-1.00;18465;294;7504495;-37
2023/08/06 10:31:01;;;;;;;0.00;0.00;;;;;;;-128.00;-1.00;-1.00;18510;288;7506004;-37
2023/08/06 10:33:30;;;;;;;1.00;0.30;;;;;;;-128.00;-1.00;-1.00;18442;294;7505772;-37
2023/08/06 10:35:56;;;;;;;2.40;0.00;;;;;;;-128.00;-1.00;-1.00;18477;295;7504566;-35
2023/08/06 10:38:31;;;;;;;0.10;0.10;;;;;;;-128.00;-1.00;-1.00;18886;295;7505106;-36
2023/08/06 10:41:02;;;;;;;0.30;0.20;;;;;;;-128.00;-1.00;-1.00;18464;339;7504001;-36
2023/08/06 10:43:34;;;;;;;0.20;0.20;;;;;;;-128.00;-1.00;-1.00;18494;288;7504700;-35
2023/08/06 10:46:04;;;;;;;0.40;0.30;;;;;;;-128.00;-1.00;-1.00;18496;310;7504464;-37
2023/08/06 10:48:46;;;;;;;3.10;0.30;;;;;;;-128.00;-1.00;-1.00;18488;307;7506453;-36
2023/08/06 10:51:13;;;;;;;2.10;0.20;;;;;;;-128.00;-1.00;-1.00;18490;294;7504513;-36
2023/08/06 10:53:42;;;;;;;0.00;0.00;;;;;;;-128.00;-1.00;-1.00;18480;288;7506712;-38
2023/08/06 10:56:14;;;;;;;0.40;0.20;;;;;;;-128.00;-1.00;-1.00;18478;294;7504956;-36
2023/08/06 10:58:40;;;;;;;0.20;0.10;;;;;;;-128.00;-1.00;-1.00;18490;294;7504475;-38
2023/08/06 11:01:06;;;;;;;0.10;0.10;;;;;;;-128.00;-1.00;-1.00;18471;343;7504909;-37
2023/08/06 11:03:32;;;;;;;0.10;0.10;;;;;;;-128.00;-1.00;-1.00;18491;302;7504654;-37
2023/08/06 11:05:58;;;;;;;0.40;0.10;;;;;;;-128.00;-1.00;-1.00;18486;294;7505957;-37
2023/08/06 11:08:27;;;;;;;0.70;0.00;;;;;;;-128.00;-1.00;-1.00;18450;294;7506008;-36
2023/08/06 11:10:53;;;;;;;1.90;0.20;;;;;;;-128.00;-1.00;-1.00;18494;347;7504914;-36
2023/08/06 11:13:20;;;;;;;0.10;0.10;;;;;;;-128.00;-1.00;-1.00;18516;294;7504993;-38
2023/08/06 11:15:45;;;;;;;0.00;0.00;;;;;;;-128.00;-1.00;-1.00;18497;294;7504708;-36
2023/08/06 11:18:12;;;;;;;0.10;0.00;;;;;;;-128.00;-1.00;-1.00;18903;294;7504542;-37
2023/08/06 11:20:39;;;;;;;0.20;0.20;;;;;;;-128.00;-1.00;-1.00;18891;322;7504671;-36
2023/08/06 11:23:06;;;;;;;0.30;0.30;;;;;;;-128.00;-1.00;-1.00;18507;295;7506432;-37
2023/08/06 11:25:36;;;;;;;0.50;0.40;;;;;;;-128.00;-1.00;-1.00;18460;294;7504107;-37
2023/08/06 11:28:02;;;;;;;0.80;0.30;;;;;;;-128.00;-1.00;-1.00;18511;294;7504831;-36
2023/08/06 11:30:28;;;;;;;0.10;0.10;;;;;;;-128.00;-1.00;-1.00;18467;294;7505212;-37
2023/08/06 11:32:53;;;;;;;0.10;0.10;;;;;;;-128.00;-1.00;-1.00;18475;294;7504739;-35
2023/08/06 11:35:19;;;;;;;0.10;0.10;;;;;;;-128.00;-1.00;-1.00;18498;294;7506602;-35
2023/08/06 11:37:45;;;;;;;0.20;0.10;;;;;;;-128.00;-1.00;-1.00;18511;296;7506246;-38
2023/08/06 11:40:11;;;;;;;0.20;0.10;;;;;;;-128.00;-1.00;-1.00;18495;310;7505995;-36
2023/08/06 11:42:37;;;;;;;0.20;0.20;;;;;;;-128.00;-1.00;-1.00;18457;294;7504947;-36
2023/08/06 11:45:04;;;;;;;0.00;0.00;;;;;;;-128.00;-1.00;-1.00;18487;294;7506029;-36
2023/08/06 11:47:30;;;;;;;1.20;0.60;;;;;;;-128.00;-1.00;-1.00;18486;339;7504978;-38
2023/08/06 11:49:55;;;;;;;1.20;0.60;;;;;;;-128.00;-1.00;-1.00;18500;302;7506226;-36
2023/08/06 11:52:23;;;;;;;1.00;0.50;;;;;;;-128.00;-1.00;-1.00;18475;294;7504595;-38
2023/08/06 11:55:14;;;;;;;0.50;0.30;;;;;;;-128.00;-1.00;-1.00;18486;294;7505922;-36
2023/08/06 11:57:44;;;;;;;0.20;0.20;;;;;;;-128.00;-1.00;-1.00;18454;294;7506316;-37
2023/08/06 12:00:11;;;;;;;1.20;0.40;;;;;;;-128.00;-1.00;-1.00;18476;294;7506479;-36
2023/08/06 12:02:41;;;;;;;3.00;0.50;;;;;;;-128.00;-1.00;-1.00;18481;294;7506240;-36
2023/08/06 12:05:11;;;;;;;1.10;0.30;;;;;;;-128.00;-1.00;-1.00;18498;339;7504168;-36
2023/08/06 12:07:39;;;;;;;0.00;0.00;;;;;;;-128.00;-1.00;-1.00;18492;295;7504988;-37
2023/08/06 12:10:05;;;;;;;0.10;0.10;;;;;;;-128.00;-1.00;-1.00;18492;302;7506059;-36